Time;durP1;ratioP1;P1;durP2;ratioP2;P2;SDS_P1;SDS_P2;PMS_P1;PMS_P2;Temp;Humidity;BMP_temperature;BMP_pressure;BME280_temperature;BME280_humidity;BME280_pressure;Samples;Min_cycle;Max_cycle;Signal;HPM_P1;HPM_P2
2022/06/19 00:01:18;;;;;;;2.30;1.17;;;23.90;95.40;;;;;;4096490;28;20034;-69
2022/06/19 00:03:31;;;;;;;3.13;1.50;;;24.00;95.40;;;;;;4097825;28;20031;-69
2022/06/19 00:05:32;;;;;;;3.35;1.00;;;23.90;95.60;;;;;;4099755;28;20039;-70
2022/06/19 00:07:32;;;;;;;3.03;1.20;;;23.90;95.30;;;;;;4097563;28;20611;-69
2022/06/19 00:09:33;;;;;;;2.38;1.10;;;23.90;95.70;;;;;;4095892;28;20035;-69
2022/06/19 00:11:35;;;;;;;5.82;1.10;;;23.80;95.60;;;;;;4096815;28;20035;-68
2022/06/19 00:13:35;;;;;;;2.58;1.23;;;23.80;95.40;;;;;;4097558;28;20039;-69
2022/06/19 00:15:36;;;;;;;3.08;1.20;;;23.80;95.70;;;;;;4097245;28;20442;-68
2022/06/19 00:17:37;;;;;;;4.10;1.45;;;23.60;95.00;;;;;;4097101;28;20407;-69
2022/06/19 00:19:38;;;;;;;2.83;1.00;;;23.60;95.60;;;;;;4096987;28;20130;-69
2022/06/19 00:21:39;;;;;;;2.38;1.00;;;23.60;96.40;;;;;;4089249;29;20091;-69
2022/06/19 00:23:39;;;;;;;3.28;0.95;;;23.60;96.10;;;;;;4097599;28;20035;-69
2022/06/19 00:25:40;;;;;;;2.67;1.25;;;23.60;96.00;;;;;;4096686;28;20023;-69
2022/06/19 00:27:41;;;;;;;1.10;0.80;;;23.60;95.60;;;;;;4097197;28;20554;-69
2022/06/19 00:29:41;;;;;;;1.70;1.13;;;23.50;96.00;;;;;;4099438;28;20043;-69
2022/06/19 00:31:42;;;;;;;2.15;1.00;;;23.40;95.50;;;;;;4096743;28;20471;-69
2022/06/19 00:33:43;;;;;;;2.05;1.00;;;23.40;96.60;;;;;;4097680;28;20047;-69
2022/06/19 00:35:43;;;;;;;6.80;1.17;;;23.30;95.90;;;;;;4096643;28;20043;-69
2022/06/19 00:37:46;;;;;;;3.30;1.00;;;23.30;96.30;;;;;;4096979;28;20050;-69
2022/06/19 00:39:46;;;;;;;;;;;23.10;96.00;;;;;;4096407;28;20394;-69
2022/06/19 00:41:48;;;;;;;2.10;1.10;;;23.20;97.20;;;;;;4096189;28;19911;-69
2022/06/19 00:44:10;;;;;;;2.17;1.10;;;23.20;97.70;;;;;;4099316;28;20035;-69
2022/06/19 00:46:41;;;;;;;2.13;1.05;;;23.10;97.10;;;;;;4093282;28;20078;-69
2022/06/19 00:48:41;;;;;;;3.00;1.55;;;23.00;97.20;;;;;;4095630;28;20053;-69
2022/06/19 00:50:47;;;;;;;3.35;1.40;;;22.90;96.90;;;;;;4095644;28;20071;-69
2022/06/19 00:52:49;;;;;;;3.63;1.40;;;22.60;97.60;;;;;;4096908;28;20042;-69
2022/06/19 00:54:56;;;;;;;3.60;1.40;;;22.50;98.50;;;;;;4096994;28;20170;-69
2022/06/19 00:56:56;;;;;;;1.98;1.10;;;22.40;98.90;;;;;;4096149;28;20046;-69
2022/06/19 00:58:57;;;;;;;1.90;1.00;;;22.40;98.70;;;;;;4096305;28;20486;-69
2022/06/19 01:01:04;;;;;;;1.35;0.95;;;22.40;99.00;;;;;;4096670;28;20407;-69
2022/06/19 01:03:13;;;;;;;4.60;1.63;;;22.50;99.10;;;;;;4096411;28;20027;-69
2022/06/19 01:05:15;;;;;;;5.18;1.73;;;22.50;99.30;;;;;;4096272;28;20422;-70
2022/06/19 01:07:17;;;;;;;3.25;1.45;;;22.50;99.90;;;;;;4096350;28;20505;-69
2022/06/19 01:09:18;;;;;;;2.58;0.90;;;22.60;99.90;;;;;;4095295;28;20035;-69
2022/06/19 01:11:20;;;;;;;3.13;1.10;;;22.70;99.60;;;;;;4095453;28;20090;-68
2022/06/19 01:13:25;;;;;;;2.60;1.35;;;22.80;99.90;;;;;;4096662;28;20035;-69
2022/06/19 01:15:26;;;;;;;3.30;1.65;;;22.80;99.90;;;;;;4096080;29;20046;-69
2022/06/19 01:17:27;;;;;;;4.22;1.67;;;22.70;99.90;;;;;;4096285;28;20032;-69
2022/06/19 01:19:34;;;;;;;1.90;1.30;;;22.70;99.90;;;;;;4096020;28;20042;-69
2022/06/19 01:21:46;;;;;;;3.10;1.50;;;22.60;99.90;;;;;;4098219;28;20031;-69
2022/06/19 01:24:10;;;;;;;2.72;1.20;;;22.70;99.90;;;;;;4093822;28;20039;-70
2022/06/19 01:26:14;;;;;;;5.47;1.60;;;22.60;99.90;;;;;;4092283;28;20057;-69
2022/06/19 01:30:46;;;;;;;1.73;0.90;;;22.50;99.90;;;;;;4093847;28;20039;-69
2022/06/19 01:32:49;;;;;;;3.70;1.38;;;22.50;99.90;;;;;;4096343;28;20517;-69
2022/06/19 01:34:52;;;;;;;1.58;1.13;;;22.50;99.90;;;;;;4098354;28;20101;-69
2022/06/19 01:37:06;;;;;;;3.65;1.52;;;22.40;99.90;;;;;;4084892;29;20126;-70
2022/06/19 01:39:06;;;;;;;6.05;1.48;;;22.40;99.80;;;;;;4090761;29;20042;-70
2022/06/19 01:41:13;;;;;;;4.68;1.60;;;22.30;99.90;;;;;;4095259;28;20051;-69
2022/06/19 01:43:14;;;;;;;3.75;1.52;;;22.20;99.90;;;;;;4096260;28;20152;-69
2022/06/19 01:45:16;;;;;;;4.85;1.65;;;22.00;99.90;;;;;;4094364;28;20078;-70
2022/06/19 01:47:16;;;;;;;4.53;1.30;;;22.00;99.90;;;;;;4095490;28;20035;-69
2022/06/19 01:49:17;;;;;;;3.65;1.33;;;21.90;99.90;;;;;;4095483;28;20368;-69
2022/06/19 01:51:18;;;;;;;6.13;1.70;;;21.80;99.90;;;;;;4094498;28;20039;-70
2022/06/19 01:53:30;;;;;;;5.20;1.52;;;21.80;99.90;;;;;;4095870;28;20027;-69
2022/06/19 01:55:32;;;;;;;5.18;1.35;;;21.70;99.90;;;;;;4093710;28;20102;-70
2022/06/19 01:57:35;;;;;;;3.63;1.35;;;21.60;99.90;;;;;;4095923;28;20047;-69
2022/06/19 01:59:39;;;;;;;4.90;1.58;;;21.60;99.90;;;;;;4094028;28;20063;-69
2022/06/19 02:01:40;;;;;;;6.57;1.70;;;21.40;99.90;;;;;;4094763;28;20112;-69
2022/06/19 02:03:52;;;;;;;5.60;1.77;;;21.20;99.90;;;;;;4095328;28;20057;-69
2022/06/19 02:05:54;;;;;;;5.80;1.60;;;21.00;99.90;;;;;;4093519;28;20078;-69
2022/06/19 02:07:54;;;;;;;3.63;1.40;;;20.90;99.90;;;;;;4095142;29;20051;-70
2022/06/19 02:09:55;;;;;;;3.40;1.48;;;20.90;99.90;;;;;;4094331;28;20143;-69
2022/06/19 02:11:57;;;;;;;5.20;1.77;;;20.90;99.90;;;;;;4092754;28;20047;-69
2022/06/19 02:13:58;;;;;;;5.10;1.60;;;21.00;99.90;;;;;;4095898;28;20038;-69
2022/06/19 02:16:01;;;;;;;4.03;1.50;;;21.00;99.90;;;;;;4094543;28;20063;-69
2022/06/19 02:18:05;;;;;;;;;;;21.10;99.90;;;;;;4095497;29;20122;-69
2022/06/19 02:20:06;;;;;;;4.22;1.77;;;21.00;99.90;;;;;;4093919;28;19965;-70
2022/06/19 02:22:13;;;;;;;5.20;1.83;;;20.90;99.90;;;;;;4094234;29;20510;-69
2022/06/19 02:24:17;;;;;;;7.18;2.50;;;20.80;99.90;;;;;;4095577;28;20104;-69
2022/06/19 02:26:18;;;;;;;8.02;2.10;;;20.50;99.90;;;;;;4095030;28;20457;-69
2022/06/19 02:28:18;;;;;;;6.68;1.70;;;20.30;99.90;;;;;;4094861;29;20031;-69
2022/06/19 02:30:19;;;;;;;3.00;1.40;;;20.30;99.90;;;;;;4094198;28;20043;-70
2022/06/19 02:32:27;;;;;;;7.20;1.55;;;20.30;99.90;;;;;;4095617;29;20063;-69
2022/06/19 02:34:50;;;;;;;6.28;2.22;;;20.40;99.90;;;;;;4095460;28;20067;-69
2022/06/19 02:37:03;;;;;;;9.05;2.35;;;20.30;99.90;;;;;;4079372;29;20032;-69
2022/06/19 02:39:24;;;;;;;7.22;1.85;;;20.20;99.90;;;;;;4095062;28;20044;-69
2022/06/19 02:41:31;;;;;;;10.85;2.40;;;20.20;99.90;;;;;;4094335;28;20041;-69
2022/06/19 02:43:33;;;;;;;8.13;2.38;;;20.10;99.90;;;;;;4093925;28;20463;-69
2022/06/19 02:45:33;;;;;;;6.50;2.25;;;20.10;99.90;;;;;;4094181;28;20555;-69
2022/06/19 02:47:36;;;;;;;7.20;2.10;;;20.10;99.90;;;;;;4094293;28;20031;-69
2022/06/19 02:49:37;;;;;;;5.75;1.63;;;20.10;99.90;;;;;;4094001;28;20042;-69
2022/06/19 02:51:38;;;;;;;8.20;2.15;;;20.00;99.90;;;;;;4094509;28;20039;-68
2022/06/19 02:53:39;;;;;;;11.55;2.95;;;20.00;99.90;;;;;;4095212;28;20118;-69
2022/06/19 02:55:40;;;;;;;8.35;2.40;;;19.80;99.90;;;;;;4094728;29;20047;-69
2022/06/19 02:57:41;;;;;;;6.95;1.95;;;19.70;99.90;;;;;;4095202;28;20047;-69
2022/06/19 02:59:42;;;;;;;14.00;3.10;;;19.70;99.90;;;;;;4093843;28;20054;-69
2022/06/19 03:01:43;;;;;;;8.20;2.50;;;19.60;99.90;;;;;;4095004;28;20462;-69
2022/06/19 03:03:43;;;;;;;9.52;2.70;;;19.50;99.90;;;;;;4095848;28;20097;-69
2022/06/19 03:05:44;;;;;;;11.40;2.83;;;19.50;99.90;;;;;;4095157;28;20039;-69
2022/06/19 03:07:45;;;;;;;9.38;2.72;;;19.40;99.90;;;;;;4095001;28;20035;-69
2022/06/19 03:09:45;;;;;;;11.10;2.17;;;19.20;99.90;;;;;;4093087;28;20055;-69
2022/06/19 03:11:46;;;;;;;12.32;2.63;;;19.10;99.90;;;;;;4094544;28;20487;-69
2022/06/19 03:13:47;;;;;;;10.73;2.35;;;19.00;99.90;;;;;;4095008;28;20036;-69
2022/06/19 03:15:58;;;;;;;10.50;2.63;;;18.90;99.90;;;;;;4094251;28;20398;-69
2022/06/19 03:17:58;;;;;;;20.63;2.40;;;18.90;99.90;;;;;;4094938;28;20035;-69
2022/06/19 03:19:59;;;;;;;7.38;2.25;;;18.80;99.90;;;;;;4094366;28;20028;-69
2022/06/19 03:21:59;;;;;;;12.32;2.33;;;18.80;99.90;;;;;;4094441;28;20566;-69
2022/06/19 03:24:00;;;;;;;13.95;2.70;;;18.80;99.90;;;;;;4095622;28;20035;-69
2022/06/19 03:26:00;;;;;;;9.43;2.63;;;18.80;99.90;;;;;;4094692;28;20032;-69
2022/06/19 03:28:01;;;;;;;11.40;3.03;;;18.80;99.90;;;;;;4094513;28;20171;-69
2022/06/19 03:30:03;;;;;;;11.30;2.70;;;18.70;99.90;;;;;;4093585;28;20122;-69
2022/06/19 03:32:04;;;;;;;10.93;2.63;;;18.60;99.90;;;;;;4093091;28;20035;-69
2022/06/19 03:34:05;;;;;;;9.77;2.20;;;18.60;99.90;;;;;;4098038;28;20487;-69
2022/06/19 03:36:06;;;;;;;14.20;2.88;;;18.50;99.90;;;;;;4096546;28;20024;-68
2022/06/19 03:38:06;;;;;;;13.60;3.22;;;18.50;99.90;;;;;;4096668;28;20443;-69
2022/06/19 03:40:08;;;;;;;10.65;2.63;;;18.40;99.90;;;;;;4096657;28;20041;-68
2022/06/19 03:42:14;;;;;;;12.85;3.03;;;18.40;99.90;;;;;;4097276;28;20031;-69
2022/06/19 03:44:15;;;;;;;14.20;2.50;;;18.30;99.90;;;;;;4096849;28;20031;-69
2022/06/19 03:46:19;;;;;;;10.32;2.10;;;18.30;99.90;;;;;;4096895;28;20091;-68
2022/06/19 03:48:20;;;;;;;13.52;3.03;;;18.20;99.90;;;;;;4097313;28;20379;-69
2022/06/19 03:50:20;;;;;;;11.38;2.95;;;18.20;99.90;;;;;;4096113;28;20031;-69
2022/06/19 03:52:21;;;;;;;14.50;3.08;;;18.10;99.90;;;;;;4097344;28;20035;-69
2022/06/19 03:54:21;;;;;;;14.32;2.75;;;18.10;99.90;;;;;;4097719;28;20455;-69
2022/06/19 03:56:25;;;;;;;7.85;2.35;;;18.10;99.90;;;;;;4096701;28;20035;-69
2022/06/19 03:58:45;;;;;;;14.32;3.00;;;18.10;99.90;;;;;;4096470;28;20054;-69
2022/06/19 04:00:45;;;;;;;13.55;3.15;;;18.10;99.90;;;;;;4093197;28;20051;-69
2022/06/19 04:02:46;;;;;;;6.25;2.35;;;18.10;99.90;;;;;;4094701;28;20046;-69
2022/06/19 04:04:47;;;;;;;10.25;2.72;;;18.00;99.90;;;;;;4094301;28;20035;-69
2022/06/19 04:06:47;;;;;;;12.38;2.88;;;18.00;99.90;;;;;;4091875;28;20487;-69
2022/06/19 04:08:48;;;;;;;9.18;2.05;;;18.00;99.20;;;;;;4095515;28;20094;-69
2022/06/19 04:10:49;;;;;;;12.48;2.47;;;18.00;99.90;;;;;;4095122;28;20031;-68
2022/06/19 04:12:50;;;;;;;10.45;2.35;;;18.00;99.30;;;;;;4096489;28;20071;-69
2022/06/19 04:14:52;;;;;;;10.63;2.88;;;18.00;99.40;;;;;;4095493;28;20039;-68
2022/06/19 04:16:52;;;;;;;13.35;2.65;;;18.00;99.00;;;;;;4096347;28;20102;-68
2022/06/19 04:18:55;;;;;;;12.48;2.70;;;18.00;99.50;;;;;;4096914;28;20043;-69
2022/06/19 04:20:57;;;;;;;9.95;2.22;;;18.00;97.60;;;;;;4095514;28;20047;-69
2022/06/19 04:22:58;;;;;;;9.55;2.08;;;18.00;98.70;;;;;;4093699;28;20114;-69
2022/06/19 04:24:59;;;;;;;6.97;2.05;;;17.90;96.70;;;;;;4096584;28;20039;-69
2022/06/19 04:27:05;;;;;;;6.75;2.25;;;18.00;96.60;;;;;;4095726;28;20610;-68
2022/06/19 04:29:06;;;;;;;6.40;1.95;;;18.00;98.20;;;;;;4096987;28;20042;-69
2022/06/19 04:31:08;;;;;;;7.47;2.38;;;18.10;97.80;;;;;;4094170;28;20054;-68
2022/06/19 04:33:08;;;;;;;9.63;2.13;;;18.10;97.40;;;;;;4096445;28;20039;-68
2022/06/19 04:35:09;;;;;;;8.15;2.60;;;18.20;97.70;;;;;;4098760;28;20027;-68
2022/06/19 04:37:10;;;;;;;8.82;2.03;;;18.20;96.80;;;;;;4096224;28;20051;-69
2022/06/19 04:39:12;;;;;;;8.82;2.45;;;18.30;97.50;;;;;;4095632;28;20483;-68
2022/06/19 04:41:22;;;;;;;7.57;1.90;;;18.30;96.90;;;;;;4094507;28;20036;-68
2022/06/19 04:43:23;;;;;;;7.57;2.10;;;18.40;96.60;;;;;;4093980;28;20035;-68
2022/06/19 04:45:24;;;;;;;9.07;2.03;;;18.40;94.70;;;;;;4095243;28;20510;-69
2022/06/19 04:47:24;;;;;;;6.18;2.10;;;18.50;95.00;;;;;;4096765;28;20050;-68
2022/06/19 04:49:25;;;;;;;9.50;2.60;;;18.50;95.50;;;;;;4095165;28;20023;-69
2022/06/19 04:51:26;;;;;;;8.10;2.03;;;18.50;97.30;;;;;;4096137;28;20415;-69
2022/06/19 04:53:27;;;;;;;11.55;2.50;;;18.60;96.30;;;;;;4095167;28;20043;-69
2022/06/19 04:55:28;;;;;;;8.27;2.17;;;18.50;97.00;;;;;;4094861;28;20071;-68
2022/06/19 04:57:28;;;;;;;9.48;2.20;;;18.60;96.40;;;;;;4096256;28;20046;-69
2022/06/19 04:59:29;;;;;;;8.65;2.05;;;18.50;95.40;;;;;;4093726;28;20027;-69
2022/06/19 05:01:33;;;;;;;9.15;2.40;;;18.40;95.20;;;;;;4094768;28;20489;-68
2022/06/19 05:03:34;;;;;;;8.90;2.35;;;18.40;95.50;;;;;;4095261;29;20500;-69
2022/06/19 05:05:34;;;;;;;12.32;2.90;;;18.40;96.40;;;;;;4079955;29;20036;-69
2022/06/19 05:07:35;;;;;;;10.63;2.60;;;18.40;96.60;;;;;;4096896;28;20035;-69
2022/06/19 05:09:36;;;;;;;10.23;2.92;;;18.40;96.80;;;;;;4080693;29;20035;-69
2022/06/19 05:11:37;;;;;;;7.30;2.15;;;18.40;96.10;;;;;;4092969;28;20050;-69
2022/06/19 05:13:38;;;;;;;11.13;2.92;;;18.40;98.40;;;;;;4096273;28;20376;-69
2022/06/19 05:15:39;;;;;;;9.00;2.50;;;18.40;97.50;;;;;;4095466;28;20040;-69
2022/06/19 05:17:40;;;;;;;10.02;2.90;;;18.20;92.90;;;;;;4093188;28;20062;-71
2022/06/19 05:19:41;;;;;;;11.75;2.22;;;18.10;93.40;;;;;;4095142;28;20494;-71
2022/06/19 05:21:42;;;;;;;9.27;2.33;;;18.20;94.40;;;;;;4094516;28;20035;-72
2022/06/19 05:23:45;;;;;;;10.35;2.72;;;18.30;94.40;;;;;;4092288;28;20094;-72
2022/06/19 05:25:45;;;;;;;;;;;17.70;92.70;;;;;;4095110;28;20047;-72
2022/06/19 05:27:46;;;;;;;13.20;3.20;;;17.70;93.40;;;;;;4095532;28;19911;-72
2022/06/19 05:29:47;;;;;;;9.70;2.35;;;17.50;93.70;;;;;;4094894;28;20050;-72
2022/06/19 05:31:47;;;;;;;9.60;2.70;;;17.60;93.90;;;;;;4094513;28;20050;-72
2022/06/19 05:33:49;;;;;;;7.00;2.13;;;17.50;93.70;;;;;;4094021;28;20047;-72
2022/06/19 05:35:50;;;;;;;10.38;2.58;;;17.60;94.20;;;;;;4095707;28;20050;-72
2022/06/19 05:37:50;;;;;;;12.68;3.10;;;17.70;94.00;;;;;;4095006;28;20415;-72
2022/06/19 05:39:51;;;;;;;17.60;3.13;;;17.50;94.00;;;;;;4091735;28;20032;-72
2022/06/19 05:41:52;;;;;;;9.65;2.47;;;17.40;94.40;;;;;;4092330;28;20466;-72
2022/06/19 05:43:53;;;;;;;11.95;2.47;;;17.40;94.60;;;;;;4094772;28;20031;-72
2022/06/19 05:45:56;;;;;;;15.35;3.08;;;17.20;94.50;;;;;;4091977;28;20043;-72
2022/06/19 05:47:56;;;;;;;6.85;2.03;;;17.20;95.00;;;;;;4091997;28;20039;-72
2022/06/19 05:49:57;;;;;;;11.32;2.92;;;17.30;95.30;;;;;;4092174;28;20079;-73
2022/06/19 05:52:00;;;;;;;9.93;2.72;;;17.50;95.20;;;;;;4082981;29;20031;-72
2022/06/19 05:54:00;;;;;;;13.18;3.10;;;17.60;94.90;;;;;;4093006;28;20399;-72
2022/06/19 05:56:01;;;;;;;14.60;3.15;;;17.70;94.20;;;;;;4095441;28;20037;-73
2022/06/19 05:58:02;;;;;;;11.07;2.42;;;17.80;93.90;;;;;;4096747;28;20023;-72
2022/06/19 06:00:03;;;;;;;9.50;2.25;;;17.90;94.10;;;;;;4094741;28;20073;-74
2022/06/19 06:02:04;;;;;;;13.35;3.03;;;18.20;93.50;;;;;;4094919;28;20035;-73
2022/06/19 06:04:05;;;;;;;9.50;2.28;;;18.20;93.20;;;;;;4084797;29;20035;-72
2022/06/19 06:06:12;;;;;;;11.18;3.10;;;18.50;93.30;;;;;;4093795;28;20031;-73
2022/06/19 06:08:14;;;;;;;16.55;3.60;;;18.50;93.10;;;;;;4080848;28;20035;-73
2022/06/19 06:10:15;;;;;;;9.23;2.67;;;18.50;92.60;;;;;;4094723;28;20039;-74
2022/06/19 06:12:15;;;;;;;11.50;2.67;;;18.60;93.30;;;;;;4094876;28;20783;-73
2022/06/19 06:14:16;;;;;;;11.55;3.00;;;18.70;92.70;;;;;;4080938;29;20551;-73
2022/06/19 06:16:19;;;;;;;10.40;2.63;;;18.70;92.80;;;;;;4091162;28;20633;-73
2022/06/19 06:18:20;;;;;;;13.48;3.25;;;18.80;92.80;;;;;;4093609;28;20023;-73
2022/06/19 06:20:21;;;;;;;12.45;3.38;;;18.80;92.50;;;;;;4080647;29;20046;-74
2022/06/19 06:22:21;;;;;;;10.98;2.53;;;19.10;93.10;;;;;;4079263;29;20062;-73
2022/06/19 06:24:22;;;;;;;9.27;2.80;;;19.10;92.70;;;;;;4094526;28;20059;-73
2022/06/19 06:26:26;;;;;;;11.73;2.83;;;19.30;92.80;;;;;;4094859;28;20034;-73
2022/06/19 06:28:28;;;;;;;8.98;2.28;;;19.50;92.60;;;;;;4090015;28;20039;-73
2022/06/19 06:30:28;;;;;;;12.45;3.30;;;19.80;94.40;;;;;;4094999;28;20053;-74
2022/06/19 06:32:29;;;;;;;8.55;3.03;;;19.80;92.00;;;;;;4092219;28;20494;-72
2022/06/19 06:34:30;;;;;;;10.60;3.00;;;20.00;93.80;;;;;;4094529;28;20047;-73
2022/06/19 06:36:30;;;;;;;8.00;2.63;;;20.10;92.40;;;;;;4094162;28;20046;-73
2022/06/19 06:38:31;;;;;;;9.18;2.55;;;20.30;92.40;;;;;;4095184;28;20054;-73
2022/06/19 06:40:32;;;;;;;8.52;2.85;;;20.50;91.40;;;;;;4078362;29;20110;-74
2022/06/19 06:42:34;;;;;;;8.25;2.55;;;20.50;90.00;;;;;;4097804;28;20122;-73
2022/06/19 06:44:34;;;;;;;8.47;2.77;;;20.60;90.90;;;;;;4098018;28;20043;-73
2022/06/19 06:46:36;;;;;;;11.68;2.83;;;20.80;92.80;;;;;;4082795;28;20154;-73
2022/06/19 06:48:37;;;;;;;9.73;2.55;;;21.00;92.10;;;;;;4092600;28;20043;-73
2022/06/19 06:50:39;;;;;;;10.57;3.03;;;21.20;92.30;;;;;;4094896;28;20036;-74
2022/06/19 06:52:40;;;;;;;10.75;3.38;;;21.50;92.80;;;;;;4083005;29;20043;-70
2022/06/19 06:54:41;;;;;;;8.15;2.50;;;21.60;92.30;;;;;;4095092;28;20102;-71
2022/06/19 06:56:42;;;;;;;12.50;3.42;;;21.70;91.60;;;;;;4093020;28;20043;-71
2022/06/19 06:58:43;;;;;;;6.72;2.35;;;21.90;91.20;;;;;;4093171;28;20043;-72
2022/06/19 07:00:43;;;;;;;12.25;3.67;;;22.00;90.40;;;;;;4091306;28;20098;-72
2022/06/19 07:02:44;;;;;;;12.93;3.30;;;22.20;90.10;;;;;;4094003;28;20499;-72
2022/06/19 07:04:45;;;;;;;10.60;2.75;;;22.30;90.70;;;;;;4096512;28;20043;-72
2022/06/19 07:06:45;;;;;;;10.95;3.10;;;22.20;90.90;;;;;;4097372;28;20081;-72
2022/06/19 07:08:46;;;;;;;14.82;3.17;;;22.10;90.80;;;;;;4097494;28;20043;-72
2022/06/19 07:10:46;;;;;;;12.45;2.70;;;22.00;92.00;;;;;;4096138;28;20055;-72
2022/06/19 07:12:48;;;;;;;12.35;2.78;;;22.10;89.80;;;;;;4097798;28;20126;-72
2022/06/19 07:14:49;;;;;;;10.13;2.20;;;21.70;90.40;;;;;;4096914;28;20039;-73
2022/06/19 07:16:49;;;;;;;10.93;2.67;;;21.70;92.00;;;;;;4093922;28;20375;-73
2022/06/19 07:18:50;;;;;;;9.35;2.72;;;21.60;91.70;;;;;;4095979;28;20507;-73
2022/06/19 07:20:51;;;;;;;11.20;2.80;;;21.50;91.70;;;;;;4095761;28;20388;-72
2022/06/19 07:22:53;;;;;;;12.93;3.25;;;21.40;91.30;;;;;;4096586;28;20039;-72
2022/06/19 07:24:54;;;;;;;11.70;2.63;;;21.10;91.90;;;;;;4083068;29;20067;-72
2022/06/19 07:26:54;;;;;;;10.13;2.40;;;21.00;92.40;;;;;;4092682;28;20031;-72
2022/06/19 07:28:55;;;;;;;11.02;2.30;;;21.00;91.60;;;;;;4095433;28;20042;-72
2022/06/19 07:30:56;;;;;;;8.65;2.10;;;20.90;91.00;;;;;;4095005;28;20039;-72
2022/06/19 07:32:57;;;;;;;11.07;2.55;;;20.80;92.60;;;;;;4094717;28;20391;-72
2022/06/19 07:34:57;;;;;;;10.88;2.70;;;20.80;92.50;;;;;;4098017;28;20173;-72
2022/06/19 07:36:58;;;;;;;10.52;2.60;;;20.70;90.80;;;;;;4097062;28;20124;-73
2022/06/19 07:38:59;;;;;;;9.32;2.28;;;20.70;91.60;;;;;;4095308;28;20070;-72
2022/06/19 07:40:59;;;;;;;10.38;2.15;;;20.70;93.40;;;;;;4090317;28;20035;-73
2022/06/19 07:43:00;;;;;;;5.10;1.95;;;20.80;92.80;;;;;;4088985;28;20083;-73
2022/06/19 07:45:01;;;;;;;12.02;2.67;;;20.90;91.80;;;;;;4093324;28;20067;-73
2022/06/19 07:51:46;;;;;;;5.40;1.58;;;20.90;92.10;;;;;;4091456;28;20509;-72
2022/06/19 07:53:47;;;;;;;8.23;1.90;;;21.10;91.40;;;;;;4092096;28;20043;-73
2022/06/19 07:55:48;;;;;;;6.07;1.73;;;21.30;91.80;;;;;;4092322;28;20055;-72
2022/06/19 07:57:48;;;;;;;8.38;1.90;;;21.50;90.90;;;;;;4093095;28;20061;-72
2022/06/19 07:59:49;;;;;;;8.77;2.00;;;21.50;91.70;;;;;;4092298;28;20027;-72
2022/06/19 08:01:50;;;;;;;10.93;2.10;;;21.60;91.40;;;;;;4093586;28;20038;-72
2022/06/19 08:03:50;;;;;;;8.57;2.40;;;21.70;90.50;;;;;;4092744;28;20039;-72
2022/06/19 08:05:51;;;;;;;6.65;2.20;;;21.80;90.50;;;;;;4093340;28;20043;-72
2022/06/19 08:07:52;;;;;;;9.18;2.28;;;22.00;90.50;;;;;;4093599;28;20403;-73
2022/06/19 08:09:53;;;;;;;5.32;1.70;;;22.10;88.90;;;;;;4093962;28;20039;-72
2022/06/19 08:11:54;;;;;;;8.98;2.30;;;22.10;88.70;;;;;;4092700;28;20046;-72
2022/06/19 08:13:54;;;;;;;6.65;2.00;;;22.10;88.30;;;;;;4094928;28;20042;-72
2022/06/19 08:16:02;;;;;;;8.95;1.77;;;22.20;90.00;;;;;;4092427;28;20059;-70
2022/06/19 08:18:03;;;;;;;7.82;2.10;;;22.30;87.70;;;;;;4092169;28;20124;-71
2022/06/19 08:20:04;;;;;;;9.75;2.10;;;22.30;87.50;;;;;;4092718;28;20071;-72
2022/06/19 08:22:04;;;;;;;7.70;2.78;;;22.10;87.50;;;;;;4093443;28;20045;-71
2022/06/19 08:24:05;;;;;;;8.95;1.70;;;22.10;87.80;;;;;;4094602;28;20122;-71
2022/06/19 08:26:06;;;;;;;5.57;1.77;;;22.00;88.50;;;;;;4093052;28;20039;-71
2022/06/19 08:28:07;;;;;;;9.60;2.47;;;22.00;88.30;;;;;;4094280;28;20043;-72
2022/06/19 08:30:13;;;;;;;10.50;2.67;;;21.90;89.00;;;;;;4092463;28;20141;-72
2022/06/19 08:32:14;;;;;;;8.75;2.28;;;21.80;88.90;;;;;;4093086;28;20035;-70
2022/06/19 08:34:14;;;;;;;5.03;1.63;;;21.80;87.50;;;;;;4092151;28;20087;-71
2022/06/19 08:36:15;;;;;;;6.25;1.70;;;21.60;87.60;;;;;;4091730;28;20038;-71
2022/06/19 08:38:20;;;;;;;7.38;1.60;;;21.40;89.10;;;;;;4078533;29;20064;-71
2022/06/19 08:40:52;;;;;;;7.22;1.55;;;21.30;87.30;;;;;;4090215;28;20039;-71
2022/06/19 08:42:56;;;;;;;6.72;1.83;;;21.20;89.00;;;;;;4089928;28;20039;-71
2022/06/19 08:45:21;;;;;;;5.50;1.65;;;21.30;88.20;;;;;;4091149;28;20455;-71
2022/06/19 08:47:35;;;;;;;4.35;1.77;;;21.30;87.50;;;;;;4091685;28;20035;-71
2022/06/19 08:49:52;;;;;;;5.20;1.67;;;21.30;86.70;;;;;;4094869;28;20074;-72
2022/06/19 08:52:04;;;;;;;7.47;1.85;;;21.30;86.20;;;;;;4092663;28;20122;-71
2022/06/19 08:54:23;;;;;;;6.35;1.70;;;21.30;86.30;;;;;;4093107;28;20036;-72
2022/06/19 08:56:44;;;;;;;5.53;2.13;;;21.40;89.00;;;;;;4093227;28;20058;-71
2022/06/19 08:59:04;;;;;;;7.95;1.88;;;21.50;89.30;;;;;;4091638;28;20062;-71
2022/06/19 09:01:24;;;;;;;4.40;1.67;;;21.50;86.80;;;;;;4093961;28;20442;-71
2022/06/19 09:06:17;;;;;;;5.93;1.38;;;21.60;85.20;;;;;;4090990;28;20071;-72
2022/06/19 09:08:35;;;;;;;6.40;1.75;;;21.70;86.80;;;;;;4092998;28;20439;-71
2022/06/19 09:10:55;;;;;;;6.40;1.70;;;21.70;86.00;;;;;;4093890;28;20138;-72
2022/06/19 09:13:21;;;;;;;4.53;1.30;;;21.80;88.50;;;;;;4092187;28;20479;-71
2022/06/19 09:15:37;;;;;;;5.13;1.60;;;21.80;82.80;;;;;;4092994;28;20471;-71
2022/06/19 09:18:01;;;;;;;5.43;1.85;;;21.70;80.40;;;;;;4049509;28;20048;-72
2022/06/19 09:20:08;;;;;;;4.68;1.70;;;21.70;86.80;;;;;;4091118;28;20047;-74
2022/06/19 09:22:15;;;;;;;5.90;1.60;;;21.70;86.80;;;;;;4093283;28;20110;-73
2022/06/19 09:24:38;;;;;;;5.82;1.70;;;21.60;81.20;;;;;;4093893;28;20834;-73
2022/06/19 09:26:50;;;;;;;6.63;2.03;;;21.30;81.30;;;;;;4093134;28;20078;-73
2022/06/19 09:29:07;;;;;;;5.15;1.60;;;21.20;82.20;;;;;;4093180;28;20114;-73
2022/06/19 09:31:27;;;;;;;5.80;1.35;;;21.00;82.00;;;;;;4096107;29;21209;-73
2022/06/19 09:33:37;;;;;;;4.13;1.50;;;21.00;82.20;;;;;;4093455;28;20036;-72
2022/06/19 09:35:44;;;;;;;6.00;1.73;;;20.90;85.10;;;;;;4092978;28;20047;-73
2022/06/19 09:38:05;;;;;;;7.05;1.63;;;20.90;82.50;;;;;;4080589;28;20138;-72
2022/06/19 09:40:20;;;;;;;6.70;1.80;;;21.00;82.90;;;;;;4080991;28;20039;-73
2022/06/19 09:42:55;;;;;;;5.70;1.55;;;21.10;90.00;;;;;;4083125;28;20046;-72
2022/06/19 09:45:11;;;;;;;8.25;1.52;;;21.10;83.80;;;;;;4076010;28;20385;-72
2022/06/19 09:47:18;;;;;;;7.63;1.65;;;20.70;85.80;;;;;;4080621;28;20043;-72
2022/06/19 09:49:56;;;;;;;5.57;1.55;;;20.90;90.20;;;;;;4080524;28;20071;-72
2022/06/19 09:52:14;;;;;;;6.90;1.90;;;20.90;91.30;;;;;;4073053;28;20039;-72
2022/06/19 09:54:42;;;;;;;3.95;1.45;;;21.00;91.30;;;;;;4081377;28;20051;-72
2022/06/19 09:56:57;;;;;;;5.65;1.25;;;21.00;91.80;;;;;;4046815;29;20048;-73
2022/06/19 09:59:34;;;;;;;8.15;1.98;;;21.10;92.20;;;;;;4092103;28;20047;-73
2022/06/19 10:01:36;;;;;;;4.45;1.42;;;21.10;91.20;;;;;;4075653;28;20043;-73
2022/06/19 10:03:43;;;;;;;4.70;1.67;;;21.10;91.30;;;;;;4092393;28;20776;-73
2022/06/19 10:05:50;;;;;;;5.35;1.73;;;21.20;92.70;;;;;;4086737;28;20394;-73
2022/06/19 10:07:56;;;;;;;4.82;1.40;;;21.30;92.10;;;;;;4088550;28;20047;-73
2022/06/19 10:10:06;;;;;;;12.27;2.88;;;21.30;92.60;;;;;;4079142;28;20062;-71
2022/06/19 10:12:15;;;;;;;9.02;2.35;;;21.20;91.80;;;;;;4080054;28;20922;-73
2022/06/19 10:14:24;;;;;;;8.38;1.83;;;21.00;92.60;;;;;;4066100;29;20088;-72
2022/06/19 10:16:51;;;;;;;9.07;2.30;;;21.00;92.70;;;;;;4079920;28;21119;-72
2022/06/19 10:18:54;;;;;;;9.43;2.38;;;21.00;92.90;;;;;;4079182;28;20036;-72
2022/06/19 10:21:07;;;;;;;7.68;2.05;;;20.90;92.40;;;;;;4080501;28;20035;-72
2022/06/19 10:23:21;;;;;;;;;;;20.90;92.40;;;;;;4089826;28;20035;-73
2022/06/19 10:25:21;;;;;;;;;;;21.00;93.50;;;;;;4093475;28;19910;-72
2022/06/19 10:27:22;;;;;;;6.47;1.92;;;21.00;92.70;;;;;;4092339;28;19946;-71
2022/06/19 10:29:36;;;;;;;7.68;1.83;;;21.10;92.80;;;;;;4092023;28;20094;-71
2022/06/19 10:31:52;;;;;;;9.40;2.22;;;21.20;91.90;;;;;;4091171;28;20741;-71
2022/06/19 10:34:25;;;;;;;7.82;1.83;;;21.30;91.70;;;;;;4092269;28;20035;-71
2022/06/19 10:36:37;;;;;;;5.07;1.63;;;21.30;92.10;;;;;;4090105;28;20479;-71
2022/06/19 10:39:02;;;;;;;8.18;1.77;;;21.40;92.60;;;;;;4092665;28;20384;-71
2022/06/19 10:43:54;;;;;;;5.63;1.52;;;21.60;92.30;;;;;;4095030;28;20432;-71
2022/06/19 10:45:58;;;;;;;7.65;1.90;;;21.60;90.90;;;;;;4093163;28;20090;-71
2022/06/19 10:48:16;;;;;;;6.72;1.88;;;21.70;91.50;;;;;;4095434;28;20094;-72
2022/06/19 10:50:28;;;;;;;3.47;1.52;;;21.80;90.50;;;;;;4094931;28;20028;-72
2022/06/19 10:52:50;;;;;;;7.45;2.10;;;21.90;90.30;;;;;;4095004;28;20483;-72
2022/06/19 10:55:06;;;;;;;6.95;1.67;;;22.00;91.20;;;;;;4094861;28;20458;-72
2022/06/19 10:57:41;;;;;;;6.82;2.00;;;22.10;89.60;;;;;;4096095;28;20463;-72
2022/06/19 10:59:42;;;;;;;10.50;2.25;;;22.10;90.30;;;;;;4080783;28;20031;-71
2022/06/19 11:04:12;;;;;;;11.48;2.22;;;22.10;85.90;;;;;;4094641;28;20031;-72